Latest Weather Observations for Scone Airport

IDN60801

Issued at 5:32 pm EST Tuesday 1 September 2015 (issued every 30 minutes, with the page automatically refreshed every 10 minutes)

About weather observations | Map of weather stations | Latest weather observations for NSW | Other Formats
Station Details ID: 061363 Name: SCONE AIRPORT AWS Lat: -32.03 Lon: 150.83 Height: 221.4 m
Data from the previous 72 hours. | See also: Recent months at Scone Airport
Date/Time
EST
Temp
°C
App
Temp
°C
Dew
Point
Rel
Hum
%
Delta-T
°C
Wind Press
QNH
hPa
Press
MSL
hPa
Rain
since 9 am
mm
Dir
 
Spd
km/h
Gust
km/h
Spd
kts
Gust
kts
01/05:30pm 14.5 12.6 3.0 46 5.2 WSW 2 9 1 5 1014.6 1014.4 0.0
01/05:00pm 16.3 13.5 5.3 48 5.3 NW 9 13 5 7 1014.5 1014.3 0.0
01/04:30pm 17.0 14.1 4.7 44 5.9 NNW 9 17 5 9 1014.3 1014.1 0.0
01/04:00pm 17.2 13.5 4.5 43 6.1 NNW 13 22 7 12 1014.3 1014.1 0.0
01/03:30pm 17.3 13.5 3.9 41 6.3 NNW 13 20 7 11 1014.3 1014.1 0.0
01/03:00pm 16.8 11.5 3.1 40 6.3 NW 20 26 11 14 1014.4 1014.2 0.0
01/02:30pm 17.4 12.7 5.0 44 6.0 NW 19 30 10 16 1014.7 1014.5 0.0
01/02:00pm 16.9 11.6 4.9 45 5.8 NW 22 32 12 17 1014.8 1014.6 0.0
01/01:30pm 16.9 12.4 4.3 43 6.0 NW 17 26 9 14 1014.7 1014.5 0.0
01/01:00pm 16.9 12.5 4.6 44 5.9 NW 17 26 9 14 1015.0 1014.8 0.0
01/12:30pm 16.1 11.0 4.2 45 5.6 NW 20 28 11 15 1015.4 1015.2 0.0
01/12:00pm 16.0 10.4 1.3 37 6.5 W 20 32 11 17 1016.0 1015.8 0.0
01/11:30am 16.0 10.9 4.1 45 5.6 W 20 32 11 17 1016.3 1016.1 0.0
01/11:00am 15.2 10.0 2.7 43 5.7 W 19 28 10 15 1016.9 1016.7 0.0
01/10:30am 14.7 9.0 4.7 51 4.7 W 24 33 13 18 1017.2 1017.0 0.0
01/10:00am 14.0 8.4 5.6 57 4.0 WNW 24 32 13 17 1017.3 1017.1 0.0
01/09:30am 13.2 7.9 5.1 58 3.8 WNW 22 32 12 17 1017.5 1017.6 0.0
01/09:00am 12.9 8.7 5.6 61 3.5 WNW 17 28 9 15 1017.4 1017.5 0.0
01/08:30am 11.9 9.2 5.5 65 3.0 NNW 9 15 5 8 1017.5 1017.6 0.0
01/08:00am 8.9 6.6 5.6 80 1.5 NE 7 13 4 7 1017.2 1017.3 0.0
01/07:30am 6.1 3.7 4.4 89 0.7 ENE 6 9 3 5 1016.9 1017.0 0.0
01/07:00am 4.6 2.5 4.0 96 0.3 N 4 9 2 5 1016.7 1016.8 0.0
01/06:30am 2.8 0.4 2.2 96 0.2 NW 4 7 2 4 1016.5 1016.7 0.0
01/06:00am 2.6 0.2 2.0 96 0.2 NNE 4 9 2 5 1016.1 1016.3 0.0
01/05:30am 2.1 -1.1 0.9 92 0.5 N 7 9 4 5 1016.1 1016.3 0.0
01/05:00am 3.1 0.6 1.6 90 0.6 NNW 4 6 2 3 1015.9 1016.1 0.0
01/04:30am 4.8 1.9 2.5 85 0.9 NNW 7 9 4 5 1015.7 1015.9 0.0
01/04:00am 6.5 3.4 3.5 81 1.3 NW 9 11 5 6 1015.6 1015.7 0.0
01/03:30am 6.7 3.8 4.4 85 1.0 NNW 9 11 5 6 1015.6 1015.7 0.0
01/03:00am 4.7 2.8 2.7 87 0.8 N 2 6 1 3 1015.7 1015.9 0.0
01/02:30am 6.4 3.2 3.2 80 1.4 NNW 9 15 5 8 1015.9 1016.1 0.0
01/02:00am 6.7 3.6 3.7 81 1.3 NNW 9 15 5 8 1016.1 1016.3 0.0
01/01:30am 5.1 2.9 3.3 88 0.8 NNW 4 9 2 5 1016.3 1016.5 0.0
01/01:00am 5.9 4.0 3.1 82 1.2 N 2 7 1 4 1016.4 1016.6 0.0
01/12:30am 7.9 4.8 3.8 75 1.8 NNW 9 13 5 7 1016.4 1016.6 0.0
01/12:00am 9.5 6.6 4.5 71 2.2 NNW 9 13 5 7 1016.5 1016.7 0.0
 
Date/Time
EST
Temp
°C
App
Temp
°C
Dew
Point
Rel
Hum
%
Delta-T
°C
Wind Press
QNH
hPa
Press
MSL
hPa
Rain
since 9 am
mm
Dir
 
Spd
km/h
Gust
km/h
Spd
kts
Gust
kts
31/11:30pm 10.0 7.0 4.2 67 2.6 NW 9 13 5 7 1016.5 1016.7 0.0
31/11:00pm 9.8 8.1 4.0 67 2.6 N 2 6 1 3 1016.4 1016.6 0.0
31/10:30pm 11.5 8.5 4.3 61 3.3 NW 9 17 5 9 1016.5 1016.7 0.0
31/10:00pm 12.2 8.9 4.4 59 3.6 N 11 17 6 9 1016.4 1016.6 0.0
31/09:30pm 12.6 9.3 4.6 58 3.7 NNW 11 19 6 10 1016.2 1016.4 0.0
31/09:00pm 12.9 9.6 4.6 57 3.8 NNW 11 19 6 10 1016.0 1016.2 0.0
31/08:30pm 13.2 9.9 4.6 56 4.0 N 11 17 6 9 1015.8 1016.0 0.0
31/08:00pm 13.0 9.8 4.9 58 3.8 NNW 11 20 6 11 1015.6 1015.7 0.0
31/07:30pm 12.9 10.1 5.1 59 3.7 N 9 15 5 8 1015.2 1015.3 0.0
31/07:00pm 13.7 10.2 5.3 57 4.0 NNW 13 20 7 11 1014.8 1014.9 0.0
31/06:30pm 14.0 10.5 5.4 56 4.1 NNW 13 22 7 12 1014.5 1014.6 0.0
31/06:00pm 13.7 10.5 5.1 56 4.1 NW 11 19 6 10 1014.3 1014.4 0.0
31/05:30pm 14.3 10.3 5.1 54 4.4 WNW 15 22 8 12 1014.0 1014.1 0.0
31/05:00pm 15.5 10.6 5.1 50 5.0 W 20 30 11 16 1013.8 1013.9 0.0
31/04:30pm 16.7 12.3 5.0 46 5.6 W 17 22 9 12 1013.7 1013.8 0.0
31/04:00pm 17.4 12.9 6.0 47 5.6 W 19 24 10 13 1013.7 1013.8 0.0
31/03:30pm 17.7 13.0 5.3 44 6.1 W 19 24 10 13 1013.7 1013.8 0.0
31/03:00pm 17.5 12.6 5.1 44 6.0 W 20 28 11 15 1013.8 1013.9 0.0
31/02:30pm 16.3 12.6 6.2 51 5.0 W 15 22 8 12 1014.1 1014.2 0.0
31/02:00pm 16.7 13.3 5.9 49 5.3 WSW 13 19 7 10 1014.3 1014.4 0.0
31/01:30pm 16.9 12.3 5.8 48 5.4 WSW 19 24 10 13 1014.6 1014.7 0.0
31/01:00pm 17.5 13.5 6.7 49 5.4 WSW 17 26 9 14 1014.9 1015.0 0.0
31/12:30pm 17.0 14.9 6.8 51 5.1 NW 7 11 4 6 1015.2 1015.3 0.0
31/12:00pm 16.4 14.3 6.0 50 5.1 SSW 6 15 3 8 1015.6 1015.7 0.0
31/11:30am 15.6 13.5 5.8 52 4.8 NNW 6 11 3 6 1016.1 1016.3 0.0
31/11:00am 14.8 13.1 5.9 55 4.3 NE 4 9 2 5 1016.8 1016.9 0.0
31/10:30am 14.3 13.0 7.6 64 3.3 NW 4 7 2 4 1017.1 1017.2 0.0
31/10:00am 13.0 11.5 6.6 65 3.1 SE 4 7 2 4 1017.3 1017.4 0.0
31/09:30am 12.6 12.0 7.5 71 2.5 CALM 0 6 0 3 1017.6 1017.7 0.0
31/09:00am 10.3 8.9 5.3 71 2.3 SE 2 6 1 3 1017.8 1017.9 0.0
31/08:30am 8.6 6.4 5.2 79 1.5 SE 6 7 3 4 1017.8 1017.9 0.0
31/08:00am 7.3 5.1 5.4 88 0.9 ESE 6 7 3 4 1017.7 1017.8 0.0
31/07:30am 4.9 3.7 4.6 98 0.1 CALM 0 0 0 0 1017.6 1017.7 0.0
31/07:00am 3.3 1.8 3.2 99 0.0 CALM 0 0 0 0 1017.4 1017.5 0.0
31/06:30am 2.5 -0.2 2.4 99 0.0 ENE 6 6 3 3 1017.3 1017.4 0.0
31/06:00am 2.8 1.2 2.7 99 0.0 CALM 0 0 0 0 1017.1 1017.2 0.0
31/05:30am 3.2 1.7 3.1 99 0.0 CALM 0 6 0 3 1017.0 1017.1 0.0
31/05:00am 2.9 0.5 2.3 96 0.2 NNE 4 7 2 4 1017.0 1017.1 0.0
31/04:30am 3.7 2.1 2.5 92 0.5 CALM 0 0 0 0 1017.1 1017.2 0.0
31/04:00am 4.6 3.2 3.6 93 0.4 CALM 0 0 0 0 1017.0 1017.1 0.0
31/03:30am 5.2 3.9 4.2 93 0.4 CALM 0 0 0 0 1017.0 1017.1 0.0
31/03:00am 5.7 4.5 4.8 94 0.4 CALM 0 0 0 0 1017.3 1017.4 0.0
31/02:30am 5.9 4.9 5.5 97 0.2 CALM 0 0 0 0 1017.5 1017.6 0.0
31/02:00am 5.1 3.9 4.5 96 0.3 CALM 0 0 0 0 1017.7 1017.8 0.0
31/01:30am 4.8 2.3 3.8 93 0.4 NNW 6 7 3 4 1018.0 1018.1 0.0
31/01:00am 5.1 2.9 3.6 90 0.6 ENE 4 7 2 4 1018.4 1018.5 0.0
31/12:30am 5.8 2.8 4.1 89 0.7 SE 9 11 5 6 1018.5 1018.6 0.0
31/12:00am 7.0 6.0 5.5 90 0.7 CALM 0 6 0 3 1018.3 1018.4 0.0
 
Date/Time
EST
Temp
°C
App
Temp
°C
Dew
Point
Rel
Hum
%
Delta-T
°C
Wind Press
QNH
hPa
Press
MSL
hPa
Rain
since 9 am
mm
Dir
 
Spd
km/h
Gust
km/h
Spd
kts
Gust
kts
30/11:30pm 6.8 5.8 5.7 93 0.5 CALM 0 6 0 3 1018.4 1018.5 0.0
30/11:00pm 5.9 4.3 4.4 90 0.6 W 2 6 1 3 1018.3 1018.4 0.0
30/10:30pm 7.3 5.3 4.4 82 1.3 WSW 4 9 2 5 1018.3 1018.4 0.0
30/10:00pm 7.3 4.1 5.3 87 0.9 SE 11 24 6 13 1018.6 1018.7 0.0
30/09:30pm 6.7 5.6 4.9 88 0.8 CALM 0 0 0 0 1018.4 1018.5 0.0
30/09:00pm 7.0 5.8 4.5 84 1.1 CALM 0 6 0 3 1018.2 1018.3 0.0
30/08:30pm 6.7 5.5 4.4 85 1.0 CALM 0 0 0 0 1018.2 1018.3 0.0
30/08:00pm 7.1 5.8 4.1 81 1.3 CALM 0 0 0 0 1018.0 1018.1 0.0
30/07:30pm 8.0 5.6 4.2 77 1.7 WNW 6 6 3 3 1017.8 1017.9 0.0
30/07:00pm 8.4 5.9 5.0 79 1.5 N 7 9 4 5 1017.6 1017.7 0.0
30/06:30pm 8.2 5.7 3.9 74 1.9 WNW 6 9 3 5 1017.3 1017.4 0.0
30/06:00pm 11.5 10.2 4.3 61 3.3 CALM 0 0 0 0 1017.1 1017.2 0.0
30/05:30pm 14.3 12.9 3.5 48 4.9 CALM 0 0 0 0 1016.9 1017.0 0.0
30/05:00pm 15.0 13.4 4.4 49 5.0 SE 2 6 1 3 1016.8 1016.9 0.0
30/04:30pm 16.1 14.1 2.5 40 6.2 E 2 6 1 3 1016.7 1016.8 0.0
30/04:00pm 15.6 12.7 1.3 38 6.3 ESE 6 11 3 6 1016.7 1016.8 0.0
30/03:30pm 15.8 12.0 1.9 39 6.2 ESE 11 15 6 8 1016.7 1016.8 0.0
30/03:00pm 15.7 12.2 1.4 38 6.3 SE 9 17 5 9 1016.9 1017.0 0.0
30/02:30pm 15.7 11.8 1.1 37 6.4 ESE 11 17 6 9 1017.0 1017.1 0.0
30/02:00pm 15.5 12.3 3.3 44 5.6 SE 9 15 5 8 1017.2 1017.3 0.0
30/01:30pm 15.0 11.9 1.5 40 6.0 SE 7 15 4 8 1017.5 1017.6 0.0
30/01:00pm 14.8 11.0 2.0 42 5.7 SSE 11 17 6 9 1017.9 1018.0 0.0
30/12:30pm 14.5 11.9 4.2 50 4.8 ESE 7 11 4 6 1018.4 1018.5 0.0
30/12:00pm 13.8 10.5 2.7 47 5.0 S 9 15 5 8 1018.9 1019.0 0.0
30/11:30am 13.6 10.6 2.2 46 5.0 S 7 11 4 6 1019.4 1019.5 0.0
30/11:00am 13.0 10.3 2.5 49 4.6 ENE 6 9 3 5 1019.8 1020.0 0.0
30/10:30am 12.1 9.3 2.3 51 4.3 NW 6 9 3 5 1020.1 1020.3 0.0
30/10:00am 11.9 9.2 2.6 53 4.1 NW 6 9 3 5 1020.3 1020.5 0.0
30/09:30am 10.8 8.1 2.6 57 3.6 W 6 13 3 7 1020.5 1020.7 0.0
30/09:00am 10.3 7.5 3.3 62 3.1 WNW 7 13 4 7 1020.6 1020.8 0.0
30/08:30am 9.3 8.0 4.1 70 2.3 CALM 0 6 0 3 1020.5 1020.7 0.0
30/08:00am 6.9 5.7 4.6 85 1.0 CALM 0 0 0 0 1020.5 1020.7 0.0
30/07:30am 5.5 3.3 3.3 86 0.9 NE 4 7 2 4 1020.3 1020.5 0.0
30/07:00am 3.5 1.5 2.5 93 0.4 NNW 2 7 1 4 1020.0 1020.2 0.0
30/06:30am 2.5 -0.6 1.3 92 0.5 W 7 15 4 8 1019.8 1020.0 0.0
30/06:00am 4.1 0.8 2.3 88 0.7 NW 9 11 5 6 1019.5 1019.7 0.0
30/05:30am 2.7 -0.3 1.1 89 0.6 NE 6 9 3 5 1019.5 1019.7 0.0
30/05:00am 4.2 0.0 1.9 85 0.9 NW 13 15 7 8 1019.4 1019.5 0.0
30/04:30am 5.5 2.8 2.8 83 1.1 N 6 7 3 4 1019.5 1019.7 0.0
30/04:00am 4.9 3.1 1.2 77 1.5 CALM 0 9 0 5 1019.6 1019.8 0.0
30/03:30am 6.2 3.3 2.7 78 1.5 NW 7 9 4 5 1019.7 1019.9 0.0
30/03:00am 6.8 2.8 2.7 75 1.7 NW 13 15 7 8 1019.8 1020.0 0.0
30/02:30am 7.1 4.4 2.8 74 1.8 WNW 6 7 3 4 1020.0 1020.2 0.0
30/02:00am 7.2 4.0 3.1 75 1.7 W 9 13 5 7 1020.2 1020.4 0.0
30/01:30am 7.4 3.5 3.6 77 1.6 W 13 15 7 8 1020.6 1020.8 0.0
30/01:00am 7.6 6.1 3.1 73 1.9 CALM 0 7 0 4 1021.0 1021.2 0.0
30/12:30am 7.9 5.3 3.2 72 2.0 WNW 6 9 3 5 1021.4 1021.5 0.0
30/12:00am 8.0 5.2 2.9 70 2.2 WNW 7 13 4 7 1021.4 1021.5 0.0
 
Date/Time
EST
Temp
°C
App
Temp
°C
Dew
Point
Rel
Hum
%
Delta-T
°C
Wind Press
QNH
hPa
Press
MSL
hPa
Rain
since 9 am
mm
Dir
 
Spd
km/h
Gust
km/h
Spd
kts
Gust
kts
29/11:30pm 9.6 5.3 3.4 65 2.7 WNW 15 19 8 10 1021.0 1021.2 0.0
29/11:00pm 9.9 6.1 3.9 66 2.7 NW 13 22 7 12 1021.1 1021.3 0.0
29/10:30pm 10.1 5.9 4.0 66 2.7 NW 15 19 8 10 1020.9 1021.1 0.0
29/10:00pm 10.6 6.5 4.5 66 2.8 WNW 15 22 8 12 1020.8 1021.0 0.0
29/09:30pm 10.5 6.8 4.6 67 2.7 NW 13 17 7 9 1020.8 1021.0 0.0
29/09:00pm 10.0 6.7 4.6 69 2.4 NW 11 17 6 9 1020.8 1021.0 0.0
29/08:30pm 9.4 7.0 4.4 71 2.2 WNW 6 11 3 6 1020.8 1021.0 0.0
29/08:00pm 9.4 6.8 4.4 71 2.2 NNW 7 9 4 5 1020.6 1020.8 0.0
29/07:30pm 10.0 6.6 4.2 67 2.6 WNW 11 15 6 8 1020.5 1020.7 0.0
29/07:00pm 11.4 7.4 4.8 64 3.0 WNW 15 24 8 13 1020.2 1020.4 0.0
29/06:30pm 11.7 8.3 4.2 60 3.4 NW 11 15 6 8 1020.1 1020.3 0.0
29/06:00pm 12.4 9.5 4.6 59 3.6 NNW 9 17 5 9 1019.8 1020.0 0.0

Other Formats:

Comma delimited format used in spreadsheet applications
http://www.bom.gov.au/fwo/IDN60801/IDN60801.95758.axf

JavaScript Object Notation format (JSON) in row-major order
http://www.bom.gov.au/fwo/IDN60801/IDN60801.95758.json